Terminal Aerodrome Forecast
Issued by NWS

Home | Current Version | Previous Version | Graphics & Text | Print | Product List | Glossary On
Versions: 1 2 3 4 5 6 7 8 9 10 11 12 13 14 15 16 17
000
FTUS42 KMHX 260244 AAA
TAFISO
TAF AMD
KISO 260244Z 2603/2624 00000KT 5SM BR OVC004
     FM260900 03004KT 2SM BR OVC004
     FM261400 02007KT P6SM VCSH OVC007
     FM261800 02008KT P6SM OVC015
      AMD LTD TO CLD VIS AND WIND=

USA.gov is the U.S. government's official web portal to all federal, state and local government web resources and services.